Time,TemperatureF,DewpointF,PressureIn,WindDirection,WindDirectionDegrees,WindSpeedMPH,WindSpeedGustMPH,Humidity,HourlyPrecipIn,Conditions,Clouds,dailyrainin,SoftwareType,DateUTC
2013-02-10 00:00:00,27.6,25.3,30.07,South,177,0.0,0.0,91,0.00,,,0.00,VWS V14.01,2013-02-10 06:00:00,
2013-02-10 00:05:00,28.1,26.1,30.07,South,176,0.0,0.0,92,0.00,,,0.00,VWS V14.01,2013-02-10 06:05:00,
2013-02-10 00:10:00,28.9,27.1,30.06,SSE,154,0.0,4.0,93,0.00,,,0.00,VWS V14.01,2013-02-10 06:10:00,
2013-02-10 00:15:00,29.5,27.7,30.07,SSE,150,3.0,4.0,93,0.00,,,0.00,VWS V14.01,2013-02-10 06:15:00,
2013-02-10 00:20:00,29.7,27.7,30.07,SSE,150,0.0,0.0,92,0.00,,,0.00,VWS V14.01,2013-02-10 06:20:00,
2013-02-10 00:25:00,29.7,27.7,30.07,South,178,0.0,4.0,92,0.00,,,0.00,VWS V14.01,2013-02-10 06:25:00,
2013-02-10 00:30:00,29.6,27.6,30.07,South,172,0.0,4.0,92,0.00,,,0.00,VWS V14.01,2013-02-10 06:30:00,
2013-02-10 00:35:00,29.3,27.0,30.07,South,178,5.0,5.0,91,0.00,,,0.00,VWS V14.01,2013-02-10 06:35:00,
2013-02-10 00:40:00,29.2,26.9,30.07,South,179,2.0,6.0,91,0.00,,,0.00,VWS V14.01,2013-02-10 06:40:00,
2013-02-10 00:45:00,29.2,26.9,30.07,South,171,0.0,5.0,91,0.00,,,0.00,VWS V14.01,2013-02-10 06:45:00,
2013-02-10 00:50:00,29.3,27.3,30.06,South,179,3.0,6.0,92,0.00,,,0.00,VWS V14.01,2013-02-10 06:50:00,
2013-02-10 00:55:00,29.4,27.1,30.06,South,171,2.0,6.0,91,0.00,,,0.00,VWS V14.01,2013-02-10 06:55:00,
2013-02-10 01:00:00,29.4,27.1,30.05,South,182,4.0,6.0,91,0.00,,,0.00,VWS V14.01,2013-02-10 07:00:00,
2013-02-10 01:05:00,29.5,27.5,30.05,South,174,3.0,8.0,92,0.00,,,0.00,VWS V14.01,2013-02-10 07:05:00,
2013-02-10 01:10:00,29.7,27.4,30.05,South,176,5.0,5.0,91,0.00,,,0.00,VWS V14.01,2013-02-10 07:10:00,
2013-02-10 01:11:00,29.8,27.5,30.05,South,177,2.0,7.0,91,0.00,,,0.00,VWS V14.01,2013-02-10 07:11:00,
2013-02-10 01:15:00,30.3,28.3,30.05,SSE,168,5.0,8.0,92,0.00,,,0.00,VWS V14.01,2013-02-10 07:15:00,
2013-02-10 01:16:00,30.5,28.5,30.05,South,177,5.0,8.0,92,0.00,,,0.00,VWS V14.01,2013-02-10 07:16:00,
2013-02-10 01:20:00,30.8,28.5,30.05,South,172,2.0,8.0,91,0.00,,,0.00,VWS V14.01,2013-02-10 07:20:00,
2013-02-10 01:21:00,30.8,28.5,30.05,SSE,157,6.0,8.0,91,0.00,,,0.00,VWS V14.01,2013-02-10 07:21:00,
2013-02-10 01:25:00,30.8,28.2,30.05,South,182,4.0,7.0,90,0.00,,,0.00,VWS V14.01,2013-02-10 07:25:00,
2013-02-10 01:26:00,30.8,28.2,30.05,South,172,5.0,7.0,90,0.00,,,0.00,VWS V14.01,2013-02-10 07:26:00,
2013-02-10 01:30:00,30.8,28.2,30.05,South,176,5.0,8.0,90,0.00,,,0.00,VWS V14.01,2013-02-10 07:30:00,
2013-02-10 01:31:00,30.8,28.0,30.05,SSE,161,5.0,8.0,89,0.00,,,0.00,VWS V14.01,2013-02-10 07:31:00,
2013-02-10 01:35:00,30.8,28.2,30.06,South,177,6.0,9.0,90,0.00,,,0.00,VWS V14.01,2013-02-10 07:35:00,
2013-02-10 01:36:00,31.0,28.4,30.06,South,176,4.0,9.0,90,0.00,,,0.00,VWS V14.01,2013-02-10 07:36:00,
2013-02-10 01:40:00,31.2,28.6,30.06,South,182,6.0,7.0,90,0.00,,,0.00,VWS V14.01,2013-02-10 07:40:00,
2013-02-10 01:41:00,31.4,28.8,30.06,South,180,6.0,7.0,90,0.00,,,0.00,VWS V14.01,2013-02-10 07:41:00,
2013-02-10 01:45:00,31.7,29.1,30.06,South,175,4.0,7.0,90,0.00,,,0.00,VWS V14.01,2013-02-10 07:45:00,
2013-02-10 01:46:00,31.8,29.2,30.06,South,179,5.0,7.0,90,0.00,,,0.00,VWS V14.01,2013-02-10 07:46:00,
2013-02-10 01:50:00,31.9,29.0,30.06,South,175,3.0,7.0,89,0.00,,,0.00,VWS V14.01,2013-02-10 07:50:00,
2013-02-10 01:51:00,31.9,29.0,30.06,South,175,0.0,5.0,89,0.00,,,0.00,VWS V14.01,2013-02-10 07:51:00,
2013-02-10 01:55:00,31.9,29.0,30.06,South,178,5.0,5.0,89,0.00,,,0.00,VWS V14.01,2013-02-10 07:55:00,
2013-02-10 01:56:00,31.9,29.0,30.06,SSE,165,0.0,5.0,89,0.00,,,0.00,VWS V14.01,2013-02-10 07:56:00,
2013-02-10 02:00:00,31.9,28.8,30.05,South,175,0.0,6.0,88,0.00,,,0.00,VWS V14.01,2013-02-10 08:00:00,
2013-02-10 02:01:00,31.9,29.0,30.05,South,173,0.0,6.0,89,0.00,,,0.00,VWS V14.01,2013-02-10 08:01:00,
2013-02-10 02:05:00,31.9,29.0,30.05,SSE,166,2.0,4.0,89,0.00,,,0.00,VWS V14.01,2013-02-10 08:05:00,
2013-02-10 02:06:00,31.9,29.0,30.05,SSE,157,0.0,4.0,89,0.00,,,0.00,VWS V14.01,2013-02-10 08:06:00,
2013-02-10 02:10:00,31.9,29.0,30.05,SSE,166,0.0,5.0,89,0.00,,,0.00,VWS V14.01,2013-02-10 08:10:00,
2013-02-10 02:11:00,32.0,29.1,30.05,SSE,160,0.0,4.0,89,0.00,,,0.00,VWS V14.01,2013-02-10 08:11:00,
2013-02-10 02:15:00,32.0,29.1,30.05,SSE,156,0.0,0.0,89,0.00,,,0.00,VWS V14.01,2013-02-10 08:15:00,
2013-02-10 02:16:00,32.1,29.0,30.05,SSE,157,0.0,0.0,88,0.00,,,0.00,VWS V14.01,2013-02-10 08:16:00,
2013-02-10 02:20:00,32.1,29.0,30.05,SSE,158,2.0,3.0,88,0.00,,,0.00,VWS V14.01,2013-02-10 08:20:00,
2013-02-10 02:21:00,32.2,29.0,30.04,SSE,158,0.0,4.0,88,0.00,,,0.00,VWS V14.01,2013-02-10 08:21:00,
2013-02-10 02:25:00,32.2,29.0,30.04,SSE,154,0.0,5.0,88,0.00,,,0.00,VWS V14.01,2013-02-10 08:25:00,
2013-02-10 02:27:00,32.2,29.0,30.04,SE,144,0.0,5.0,88,0.00,,,0.00,VWS V14.01,2013-02-10 08:27:00,
2013-02-10 02:30:00,32.3,29.1,30.04,SE,146,0.0,4.0,88,0.00,,,0.00,VWS V14.01,2013-02-10 08:30:00,
2013-02-10 02:32:00,32.3,29.1,30.04,SE,142,4.0,4.0,88,0.00,,,0.00,VWS V14.01,2013-02-10 08:32:00,
2013-02-10 02:35:00,32.4,29.2,30.03,SE,128,0.0,4.0,88,0.00,,,0.00,VWS V14.01,2013-02-10 08:35:00,
2013-02-10 02:37:00,32.4,29.0,30.03,SE,131,3.0,4.0,87,0.00,,,0.00,VWS V14.01,2013-02-10 08:37:00,
2013-02-10 02:40:00,32.5,29.1,30.03,SSE,157,3.0,5.0,87,0.00,,,0.00,VWS V14.01,2013-02-10 08:40:00,
2013-02-10 02:42:00,32.5,29.1,30.03,SE,132,0.0,5.0,87,0.00,,,0.00,VWS V14.01,2013-02-10 08:42:00,
2013-02-10 02:45:00,32.6,29.2,30.03,SE,138,3.0,5.0,87,0.00,,,0.00,VWS V14.01,2013-02-10 08:45:00,
2013-02-10 02:47:00,32.6,29.2,30.02,SE,128,0.0,5.0,87,0.00,,,0.00,VWS V14.01,2013-02-10 08:47:00,
2013-02-10 02:50:00,32.6,29.2,30.02,SE,128,0.0,5.0,87,0.00,,,0.00,VWS V14.01,2013-02-10 08:50:00,
2013-02-10 02:52:00,32.5,29.1,30.02,SE,128,0.0,0.0,87,0.00,,,0.00,VWS V14.01,2013-02-10 08:52:00,
2013-02-10 02:55:00,32.5,29.1,30.02,SE,129,2.0,2.0,87,0.00,,,0.00,VWS V14.01,2013-02-10 08:55:00,
2013-02-10 02:57:00,32.5,29.4,30.02,SE,138,4.0,4.0,88,0.00,,,0.00,VWS V14.01,2013-02-10 08:57:00,
2013-02-10 03:00:00,32.5,29.4,30.02,SE,139,0.0,5.0,88,0.00,,,0.00,VWS V14.01,2013-02-10 09:00:00,
2013-02-10 03:02:00,32.4,29.2,30.01,SE,145,0.0,2.0,88,0.00,,,0.00,VWS V14.01,2013-02-10 09:02:00,
2013-02-10 03:05:00,32.4,29.2,30.02,SSE,147,0.0,5.0,88,0.00,,,0.00,VWS V14.01,2013-02-10 09:05:00,
2013-02-10 03:07:00,32.4,29.2,30.01,SE,144,2.0,5.0,88,0.00,,,0.00,VWS V14.01,2013-02-10 09:07:00,
2013-02-10 03:10:00,32.3,29.1,30.01,SE,144,0.0,5.0,88,0.00,,,0.00,VWS V14.01,2013-02-10 09:10:00,
2013-02-10 03:12:00,32.3,29.1,30.01,SE,138,3.0,4.0,88,0.00,,,0.00,VWS V14.01,2013-02-10 09:12:00,
2013-02-10 03:15:00,32.4,29.2,30.01,SE,144,0.0,4.0,88,0.00,,,0.00,VWS V14.01,2013-02-10 09:15:00,
2013-02-10 03:17:00,32.3,29.1,30.00,SE,144,0.0,3.0,88,0.00,,,0.00,VWS V14.01,2013-02-10 09:17:00,
2013-02-10 03:20:00,32.3,29.1,30.00,SE,128,0.0,5.0,88,0.00,,,0.00,VWS V14.01,2013-02-10 09:20:00,
2013-02-10 03:22:00,32.2,29.0,30.00,SE,128,0.0,5.0,88,0.00,,,0.00,VWS V14.01,2013-02-10 09:22:00,
2013-02-10 03:25:00,32.2,29.0,30.00,SE,127,0.0,0.0,88,0.00,,,0.00,VWS V14.01,2013-02-10 09:25:00,
2013-02-10 03:27:00,32.2,29.0,30.00,SE,127,0.0,0.0,88,0.00,,,0.00,VWS V14.01,2013-02-10 09:27:00,
2013-02-10 03:30:00,32.2,29.3,30.00,SE,127,0.0,0.0,89,0.00,,,0.00,VWS V14.01,2013-02-10 09:30:00,
2013-02-10 03:32:00,32.2,29.3,30.00,SE,129,0.0,0.0,89,0.00,,,0.00,VWS V14.01,2013-02-10 09:32:00,
2013-02-10 03:35:00,32.2,29.3,30.00,SE,132,5.0,5.0,89,0.00,,,0.00,VWS V14.01,2013-02-10 09:35:00,
2013-02-10 03:37:00,32.3,29.4,30.00,SE,137,5.0,6.0,89,0.00,,,0.00,VWS V14.01,2013-02-10 09:37:00,
2013-02-10 03:40:00,32.3,29.4,29.99,SE,137,1.0,5.0,89,0.00,,,0.00,VWS V14.01,2013-02-10 09:40:00,
2013-02-10 03:43:00,32.3,29.4,30.00,SE,129,4.0,5.0,89,0.00,,,0.00,VWS V14.01,2013-02-10 09:43:00,
2013-02-10 03:45:00,32.3,29.4,30.00,SSE,154,3.0,5.0,89,0.00,,,0.00,VWS V14.01,2013-02-10 09:45:00,
2013-02-10 03:48:00,32.4,29.5,29.99,SE,140,3.0,6.0,89,0.00,,,0.00,VWS V14.01,2013-02-10 09:48:00,
2013-02-10 03:50:00,32.4,29.5,29.99,SE,142,2.0,6.0,89,0.00,,,0.00,VWS V14.01,2013-02-10 09:50:00,
2013-02-10 03:53:00,32.5,29.6,29.99,SE,139,0.0,5.0,89,0.00,,,0.00,VWS V14.01,2013-02-10 09:53:00,
2013-02-10 03:55:00,32.4,29.5,29.99,SE,144,4.0,5.0,89,0.00,,,0.00,VWS V14.01,2013-02-10 09:55:00,
2013-02-10 03:58:00,32.5,29.6,29.98,SE,130,0.0,5.0,89,0.00,,,0.00,VWS V14.01,2013-02-10 09:58:00,
2013-02-10 04:00:00,32.5,29.6,29.98,SE,132,0.0,5.0,89,0.00,,,0.00,VWS V14.01,2013-02-10 10:00:00,
2013-02-10 04:03:00,32.5,29.6,29.99,SE,134,4.0,5.0,89,0.00,,,0.00,VWS V14.01,2013-02-10 10:03:00,
2013-02-10 04:05:00,32.5,29.6,29.99,SE,135,3.0,5.0,89,0.00,,,0.00,VWS V14.01,2013-02-10 10:05:00,
2013-02-10 04:08:00,32.5,29.6,29.99,SSE,154,4.0,5.0,89,0.00,,,0.00,VWS V14.01,2013-02-10 10:08:00,
2013-02-10 04:10:00,32.5,29.6,29.99,SSE,150,3.0,5.0,89,0.00,,,0.00,VWS V14.01,2013-02-10 10:10:00,
2013-02-10 04:13:00,32.5,29.6,29.98,SE,136,5.0,5.0,89,0.00,,,0.00,VWS V14.01,2013-02-10 10:13:00,
2013-02-10 04:15:00,32.5,29.6,29.98,ESE,119,0.0,5.0,89,0.00,,,0.00,VWS V14.01,2013-02-10 10:15:00,
2013-02-10 04:18:00,32.5,29.6,29.99,ESE,123,2.0,4.0,89,0.00,,,0.00,VWS V14.01,2013-02-10 10:18:00,
2013-02-10 04:20:00,32.5,29.6,29.98,SE,125,0.0,4.0,89,0.00,,,0.00,VWS V14.01,2013-02-10 10:20:00,
2013-02-10 04:23:00,32.4,29.8,29.98,SE,132,4.0,5.0,90,0.00,,,0.00,VWS V14.01,2013-02-10 10:23:00,
2013-02-10 04:25:00,32.4,29.8,29.98,SE,132,0.0,5.0,90,0.00,,,0.00,VWS V14.01,2013-02-10 10:25:00,
2013-02-10 04:28:00,32.5,29.9,29.98,SE,132,0.0,4.0,90,0.00,,,0.00,VWS V14.01,2013-02-10 10:28:00,
2013-02-10 04:30:00,32.5,29.9,29.98,SE,132,0.0,4.0,90,0.00,,,0.00,VWS V14.01,2013-02-10 10:30:00,
2013-02-10 04:33:00,32.6,30.0,29.98,SE,132,0.0,3.0,90,0.00,,,0.00,VWS V14.01,2013-02-10 10:33:00,
2013-02-10 04:35:00,32.6,30.0,29.98,SE,131,0.0,3.0,90,0.00,,,0.00,VWS V14.01,2013-02-10 10:35:00,
2013-02-10 04:38:00,32.6,30.0,29.99,South,173,3.0,5.0,90,0.00,,,0.00,VWS V14.01,2013-02-10 10:38:00,
2013-02-10 04:40:00,32.6,30.0,29.99,South,172,0.0,5.0,90,0.00,,,0.00,VWS V14.01,2013-02-10 10:40:00,
2013-02-10 04:43:00,32.7,30.1,29.98,SE,144,3.0,5.0,90,0.00,,,0.00,VWS V14.01,2013-02-10 10:43:00,
2013-02-10 04:45:00,33.3,30.7,29.97,SE,134,0.0,6.0,90,0.00,,FEW070,0.00,VWS V14.01,2013-02-10 10:45:00,
2013-02-10 04:48:00,32.8,30.2,29.98,SE,134,5.0,6.0,90,0.00,,,0.00,VWS V14.01,2013-02-10 10:48:00,
2013-02-10 04:50:00,32.9,30.3,29.98,SE,134,0.0,6.0,90,0.00,,,0.00,VWS V14.01,2013-02-10 10:50:00,
2013-02-10 04:53:00,33.0,30.4,29.98,SE,132,0.0,8.0,90,0.00,,,0.00,VWS V14.01,2013-02-10 10:53:00,
2013-02-10 04:55:00,33.0,30.4,29.98,SE,132,0.0,8.0,90,0.00,,,0.00,VWS V14.01,2013-02-10 10:55:00,
2013-02-10 04:59:00,33.1,30.5,29.98,SE,130,0.0,6.0,90,0.00,,,0.00,VWS V14.01,2013-02-10 10:59:00,
2013-02-10 05:00:00,33.4,30.8,29.97,SE,139,0.0,5.0,90,0.00,,FEW070,0.00,VWS V14.01,2013-02-10 11:00:00,
2013-02-10 05:04:00,33.1,30.5,29.98,SE,128,0.0,5.0,90,0.00,,SCT110,0.00,VWS V14.01,2013-02-10 11:04:00,
2013-02-10 05:05:00,33.1,30.5,29.98,SE,127,0.0,3.0,90,0.00,,,0.00,VWS V14.01,2013-02-10 11:05:00,
2013-02-10 05:09:00,33.0,30.4,29.98,SE,132,3.0,4.0,90,0.00,,SCT110,0.00,VWS V14.01,2013-02-10 11:09:00,
2013-02-10 05:10:00,33.0,30.4,29.98,SE,131,3.0,5.0,90,0.00,,,0.00,VWS V14.01,2013-02-10 11:10:00,
2013-02-10 05:14:00,33.0,30.4,29.98,SE,129,0.0,4.0,90,0.00,,SCT110,0.00,VWS V14.01,2013-02-10 11:14:00,
2013-02-10 05:15:00,33.0,30.4,29.98,SE,129,0.0,3.0,90,0.00,,,0.00,VWS V14.01,2013-02-10 11:15:00,
2013-02-10 05:19:00,33.1,30.5,29.98,SE,132,0.0,4.0,90,0.00,,SCT110,0.00,VWS V14.01,2013-02-10 11:19:00,
2013-02-10 05:20:00,33.1,30.5,29.98,SE,132,0.0,4.0,90,0.00,,,0.00,VWS V14.01,2013-02-10 11:20:00,
2013-02-10 05:24:00,33.2,30.9,29.98,SSE,154,5.0,5.0,91,0.00,,SCT110,0.00,VWS V14.01,2013-02-10 11:24:00,
2013-02-10 05:25:00,33.1,30.8,29.98,SSE,154,2.0,5.0,91,0.00,,,0.00,VWS V14.01,2013-02-10 11:25:00,
2013-02-10 05:29:00,33.2,30.9,29.98,SE,132,5.0,5.0,91,0.00,,SCT110,0.00,VWS V14.01,2013-02-10 11:29:00,
2013-02-10 05:30:00,33.2,30.9,29.98,SE,134,3.0,5.0,91,0.00,,,0.00,VWS V14.01,2013-02-10 11:30:00,
2013-02-10 05:34:00,33.2,30.6,29.98,SE,128,0.0,5.0,90,0.00,,SCT110,0.00,VWS V14.01,2013-02-10 11:34:00,
2013-02-10 05:35:00,33.2,30.6,29.98,SE,128,0.0,5.0,90,0.00,,,0.00,VWS V14.01,2013-02-10 11:35:00,
2013-02-10 05:39:00,33.2,30.6,29.98,SE,132,3.0,6.0,90,0.00,,SCT110,0.00,VWS V14.01,2013-02-10 11:39:00,
2013-02-10 05:40:00,33.2,30.6,29.97,SE,133,3.0,6.0,90,0.00,,,0.00,VWS V14.01,2013-02-10 11:40:00,
2013-02-10 05:44:00,33.3,30.7,29.97,SE,134,0.0,6.0,90,0.00,,SCT110,0.00,VWS V14.01,2013-02-10 11:44:00,
2013-02-10 05:45:00,33.3,30.7,29.97,SE,134,0.0,6.0,90,0.00,,,0.00,VWS V14.01,2013-02-10 11:45:00,
2013-02-10 05:49:00,33.3,30.7,29.97,ESE,109,4.0,5.0,90,0.00,,SCT110,0.00,VWS V14.01,2013-02-10 11:49:00,
2013-02-10 05:50:00,33.3,30.7,29.97,ESE,109,4.0,5.0,90,0.00,,,0.00,VWS V14.01,2013-02-10 11:50:00,
2013-02-10 05:54:00,33.4,30.8,29.97,SE,138,0.0,5.0,90,0.00,,SCT110,0.00,VWS V14.01,2013-02-10 11:54:00,
2013-02-10 05:55:00,33.4,31.3,29.93,ESE,116,0.0,4.0,92,0.00,,FEW070,0.00,VWS V14.01,2013-02-10 11:55:00,
2013-02-10 05:59:00,33.4,30.8,29.97,SE,138,0.0,5.0,90,0.00,,SCT110,0.00,VWS V14.01,2013-02-10 11:59:00,
2013-02-10 06:00:00,33.4,30.8,29.97,SE,139,0.0,5.0,90,0.00,,,0.00,VWS V14.01,2013-02-10 12:00:00,
2013-02-10 06:04:00,33.4,30.8,29.97,SE,125,0.0,5.0,90,0.00,,OVC044,0.00,VWS V14.01,2013-02-10 12:04:00,
2013-02-10 06:05:00,33.4,30.8,29.97,SE,125,0.0,5.0,90,0.00,,,0.00,VWS V14.01,2013-02-10 12:05:00,
2013-02-10 06:09:00,33.5,30.9,29.96,SE,132,4.0,6.0,90,0.00,,OVC044,0.00,VWS V14.01,2013-02-10 12:09:00,
2013-02-10 06:10:00,33.5,30.9,29.96,SE,130,5.0,6.0,90,0.00,,,0.00,VWS V14.01,2013-02-10 12:10:00,
2013-02-10 06:15:00,33.4,30.8,29.96,SE,128,3.0,7.0,90,0.00,,OVC044,0.00,VWS V14.01,2013-02-10 12:15:00,
2013-02-10 06:20:00,33.5,31.2,29.95,SE,132,6.0,6.0,91,0.00,,OVC044,0.00,VWS V14.01,2013-02-10 12:20:00,
2013-02-10 06:25:00,33.5,31.2,29.95,SE,130,0.0,5.0,91,0.00,,OVC044,0.00,VWS V14.01,2013-02-10 12:25:00,
2013-02-10 06:30:00,33.5,31.2,29.95,SE,128,0.0,4.0,91,0.00,,OVC044,0.00,VWS V14.01,2013-02-10 12:30:00,
2013-02-10 06:35:00,33.5,31.2,29.95,SE,131,0.0,4.0,91,0.00,,OVC044,0.00,VWS V14.01,2013-02-10 12:35:00,
2013-02-10 06:40:00,33.4,31.1,29.95,SE,124,0.0,0.0,91,0.00,,OVC044,0.00,VWS V14.01,2013-02-10 12:40:00,
2013-02-10 06:45:00,33.4,31.3,29.94,ESE,111,0.0,3.0,92,0.00,,OVC044,0.00,VWS V14.01,2013-02-10 12:45:00,
2013-02-10 06:50:00,33.4,31.3,29.93,ESE,103,0.0,4.0,92,0.00,,OVC044,0.00,VWS V14.01,2013-02-10 12:50:00,
2013-02-10 06:55:00,33.5,31.4,29.93,ESE,116,0.0,4.0,92,0.00,,OVC044,0.00,VWS V14.01,2013-02-10 12:55:00,
2013-02-10 07:00:00,33.6,31.5,29.93,ESE,118,0.0,0.0,92,0.00,,OVC044,0.00,VWS V14.01,2013-02-10 13:00:00,
2013-02-10 07:05:00,33.7,31.6,29.92,ESE,115,0.0,5.0,92,0.00,,OVC043,0.00,VWS V14.01,2013-02-10 13:05:00,
2013-02-10 07:10:00,33.8,31.7,29.93,ESE,122,0.0,3.0,92,0.00,,OVC043,0.00,VWS V14.01,2013-02-10 13:10:00,
2013-02-10 07:15:00,34.0,31.9,29.92,SE,132,0.0,5.0,92,0.00,,OVC043,0.00,VWS V14.01,2013-02-10 13:15:00,
2013-02-10 07:20:00,34.1,32.0,29.92,SE,130,1.0,5.0,92,0.00,,OVC043,0.00,VWS V14.01,2013-02-10 13:20:00,
2013-02-10 07:25:00,34.1,32.0,29.92,SE,129,3.0,6.0,92,0.00,,OVC043,0.00,VWS V14.01,2013-02-10 13:25:00,
2013-02-10 07:30:00,34.1,32.0,29.92,ESE,122,0.0,5.0,92,0.00,,,0.00,VWS V14.01,2013-02-10 13:30:00,
2013-02-10 07:31:00,34.1,31.8,29.92,ESE,116,0.0,4.0,91,0.00,,OVC043,0.00,VWS V14.01,2013-02-10 13:31:00,
2013-02-10 07:35:00,34.1,31.8,29.91,ESE,105,2.0,4.0,91,0.00,,,0.00,VWS V14.01,2013-02-10 13:35:00,
2013-02-10 07:36:00,34.1,31.8,29.91,East,101,0.0,4.0,91,0.00,,OVC043,0.00,VWS V14.01,2013-02-10 13:36:00,
2013-02-10 07:40:00,34.2,32.1,29.91,ESE,109,0.0,3.0,92,0.00,,,0.00,VWS V14.01,2013-02-10 13:40:00,
2013-02-10 07:41:00,34.2,32.1,29.90,ESE,112,1.0,2.0,92,0.00,,OVC043,0.00,VWS V14.01,2013-02-10 13:41:00,
2013-02-10 07:45:00,34.3,32.0,29.89,East,86,1.0,6.0,91,0.00,,,0.00,VWS V14.01,2013-02-10 13:45:00,
2013-02-10 07:46:00,34.3,32.0,29.89,ESE,105,3.0,6.0,91,0.00,,OVC043,0.00,VWS V14.01,2013-02-10 13:46:00,
2013-02-10 07:50:00,34.4,32.0,29.89,ESE,111,3.0,6.0,91,0.00,,,0.00,VWS V14.01,2013-02-10 13:50:00,
2013-02-10 07:51:00,34.5,32.2,29.89,ESE,112,1.0,6.0,91,0.00,,OVC043,0.00,VWS V14.01,2013-02-10 13:51:00,
2013-02-10 07:55:00,34.6,32.2,29.89,East,101,2.0,6.0,91,0.00,,,0.00,VWS V14.01,2013-02-10 13:55:00,
2013-02-10 07:56:00,34.6,32.2,29.89,ESE,107,2.0,6.0,91,0.00,,OVC043,0.00,VWS V14.01,2013-02-10 13:56:00,
2013-02-10 08:00:00,34.8,32.5,29.88,ESE,114,1.0,4.0,91,0.00,,,0.00,VWS V14.01,2013-02-10 14:00:00,
2013-02-10 08:01:00,34.9,32.5,29.88,ESE,117,2.0,4.0,91,0.00,,SCT100,0.00,VWS V14.01,2013-02-10 14:01:00,
2013-02-10 08:05:00,35.0,32.6,29.89,ESE,123,5.0,7.0,91,0.00,,,0.00,VWS V14.01,2013-02-10 14:05:00,
2013-02-10 08:06:00,35.1,32.7,29.88,SE,126,4.0,7.0,91,0.00,,SCT100,0.00,VWS V14.01,2013-02-10 14:06:00,
2013-02-10 08:10:00,35.3,32.9,29.88,SE,139,5.0,6.0,91,0.00,,,0.00,VWS V14.01,2013-02-10 14:10:00,
2013-02-10 08:11:00,35.4,33.0,29.88,SE,125,6.0,7.0,91,0.00,,SCT100,0.00,VWS V14.01,2013-02-10 14:11:00,
2013-02-10 08:15:00,35.5,33.1,29.88,SE,127,0.0,6.0,91,0.00,,,0.00,VWS V14.01,2013-02-10 14:15:00,
2013-02-10 08:16:00,35.5,32.9,29.88,SE,127,3.0,5.0,90,0.00,,SCT100,0.00,VWS V14.01,2013-02-10 14:16:00,
2013-02-10 08:20:00,35.6,33.0,29.88,ESE,120,3.0,7.0,90,0.00,,,0.00,VWS V14.01,2013-02-10 14:20:00,
2013-02-10 08:21:00,35.6,33.0,29.88,ESE,122,4.0,7.0,90,0.00,,SCT100,0.00,VWS V14.01,2013-02-10 14:21:00,
2013-02-10 08:25:00,35.6,33.0,29.88,SE,128,0.0,8.0,90,0.00,,,0.00,VWS V14.01,2013-02-10 14:25:00,
2013-02-10 08:26:00,35.7,33.1,29.88,SE,125,0.0,8.0,90,0.00,,SCT100,0.00,VWS V14.01,2013-02-10 14:26:00,
2013-02-10 08:30:00,35.9,33.3,29.87,SE,138,4.0,7.0,90,0.00,,,0.00,VWS V14.01,2013-02-10 14:30:00,
2013-02-10 08:31:00,36.1,33.5,29.87,SE,136,7.0,8.0,90,0.01,,BKN026,0.01,VWS V14.01,2013-02-10 14:31:00,
2013-02-10 08:35:00,36.1,33.5,29.88,SE,126,5.0,11.0,90,0.01,,,0.01,VWS V14.01,2013-02-10 14:35:00,
2013-02-10 08:37:00,36.1,33.5,29.88,SE,142,5.0,10.0,90,0.01,,BKN026,0.01,VWS V14.01,2013-02-10 14:37:00,
2013-02-10 08:40:00,36.0,33.1,29.88,SE,132,6.0,10.0,89,0.01,,,0.01,VWS V14.01,2013-02-10 14:40:00,
2013-02-10 08:42:00,35.9,33.0,29.88,SE,143,3.0,12.0,89,0.01,,BKN026,0.01,VWS V14.01,2013-02-10 14:42:00,
2013-02-10 08:45:00,35.8,33.2,29.88,SSE,165,3.0,12.0,90,0.01,,,0.01,VWS V14.01,2013-02-10 14:45:00,
2013-02-10 08:47:00,35.7,33.1,29.89,South,188,10.0,12.0,90,0.01,,BKN026,0.01,VWS V14.01,2013-02-10 14:47:00,
2013-02-10 08:50:00,35.7,33.1,29.89,SSE,148,4.0,10.0,90,0.01,,,0.01,VWS V14.01,2013-02-10 14:50:00,
2013-02-10 08:52:00,35.7,33.1,29.89,SSE,155,6.0,9.0,90,0.01,,BKN026,0.01,VWS V14.01,2013-02-10 14:52:00,
2013-02-10 08:55:00,35.7,33.1,29.88,SE,127,0.0,9.0,90,0.01,,,0.01,VWS V14.01,2013-02-10 14:55:00,
2013-02-10 08:57:00,35.6,33.0,29.88,SSE,155,5.0,9.0,90,0.01,,BKN026,0.01,VWS V14.01,2013-02-10 14:57:00,
2013-02-10 09:00:00,35.5,32.9,29.88,SE,146,4.0,9.0,90,0.01,,,0.01,VWS V14.01,2013-02-10 15:00:00,
2013-02-10 09:02:00,35.5,32.9,29.88,South,182,0.0,7.0,90,0.01,,OVC021,0.01,VWS V14.01,2013-02-10 15:02:00,
2013-02-10 09:05:00,35.5,32.9,29.88,SSE,153,2.0,10.0,90,0.01,,,0.01,VWS V14.01,2013-02-10 15:05:00,
2013-02-10 09:07:00,35.4,33.0,29.88,SE,131,4.0,10.0,91,0.01,,OVC021,0.01,VWS V14.01,2013-02-10 15:07:00,
2013-02-10 09:10:00,35.4,33.0,29.88,SE,140,0.0,7.0,91,0.01,,,0.01,VWS V14.01,2013-02-10 15:10:00,
2013-02-10 09:12:00,35.4,33.0,29.87,SE,128,6.0,11.0,91,0.01,,OVC021,0.01,VWS V14.01,2013-02-10 15:12:00,
2013-02-10 09:15:00,35.3,32.9,29.87,SE,142,2.0,12.0,91,0.01,,,0.01,VWS V14.01,2013-02-10 15:15:00,
2013-02-10 09:17:00,35.3,32.9,29.87,SE,138,7.0,12.0,91,0.01,,OVC021,0.01,VWS V14.01,2013-02-10 15:17:00,
2013-02-10 09:20:00,35.3,32.9,29.87,SSE,148,5.0,10.0,91,0.01,,,0.01,VWS V14.01,2013-02-10 15:20:00,
2013-02-10 09:22:00,35.3,32.9,29.86,SSE,155,9.0,10.0,91,0.01,,OVC021,0.01,VWS V14.01,2013-02-10 15:22:00,
2013-02-10 09:25:00,35.3,32.9,29.86,ESE,109,2.0,10.0,91,0.01,,,0.01,VWS V14.01,2013-02-10 15:25:00,
2013-02-10 09:27:00,35.3,32.9,29.85,ESE,103,5.0,8.0,91,0.01,,OVC021,0.01,VWS V14.01,2013-02-10 15:27:00,
2013-02-10 09:30:00,35.3,32.9,29.85,SE,138,0.0,7.0,91,0.01,,,0.01,VWS V14.01,2013-02-10 15:30:00,
2013-02-10 09:33:00,35.3,32.9,29.86,SE,146,4.0,7.0,91,0.01,,,0.01,VWS V14.01,2013-02-10 15:33:00,
2013-02-10 09:35:00,35.3,32.9,29.86,SE,142,2.0,8.0,91,0.01,,,0.01,VWS V14.01,2013-02-10 15:35:00,
2013-02-10 09:38:00,35.3,32.9,29.85,South,186,0.0,8.0,91,0.00,,,0.01,VWS V14.01,2013-02-10 15:38:00,
2013-02-10 09:40:00,35.3,32.9,29.84,ESE,109,3.0,8.0,91,0.00,,,0.01,VWS V14.01,2013-02-10 15:40:00,
2013-02-10 09:43:00,35.2,32.8,29.84,SE,132,8.0,10.0,91,0.00,,,0.01,VWS V14.01,2013-02-10 15:43:00,
2013-02-10 09:45:00,35.2,33.1,29.84,SE,140,3.0,9.0,92,0.00,,,0.01,VWS V14.01,2013-02-10 15:45:00,
2013-02-10 09:48:00,35.1,33.0,29.83,SE,130,7.0,10.0,92,0.00,,,0.01,VWS V14.01,2013-02-10 15:48:00,
2013-02-10 09:50:00,35.1,33.0,29.83,SE,131,8.0,11.0,92,0.00,,,0.01,VWS V14.01,2013-02-10 15:50:00,
2013-02-10 09:53:00,35.2,33.1,29.83,SSE,167,4.0,14.0,92,0.00,,,0.01,VWS V14.01,2013-02-10 15:53:00,
2013-02-10 09:55:00,35.3,33.2,29.83,SSE,154,3.0,12.0,92,0.00,,,0.01,VWS V14.01,2013-02-10 15:55:00,
2013-02-10 09:58:00,35.3,33.2,29.83,SE,128,7.0,13.0,92,0.00,,,0.01,VWS V14.01,2013-02-10 15:58:00,
2013-02-10 10:00:00,35.3,33.2,29.84,SSE,166,2.0,13.0,92,0.00,,,0.01,VWS V14.01,2013-02-10 16:00:00,
2013-02-10 10:03:00,35.4,33.3,29.84,SSE,167,3.0,10.0,92,0.00,,-RA,0.01,VWS V14.01,2013-02-10 16:03:00,
2013-02-10 10:05:00,35.4,33.3,29.84,SSE,167,4.0,10.0,92,0.00,,,0.01,VWS V14.01,2013-02-10 16:05:00,
2013-02-10 10:08:00,35.3,33.2,29.83,South,171,7.0,12.0,92,0.00,,-RA,0.01,VWS V14.01,2013-02-10 16:08:00,
2013-02-10 10:10:00,35.3,33.2,29.83,SE,142,7.0,12.0,92,0.00,,,0.01,VWS V14.01,2013-02-10 16:10:00,
2013-02-10 10:13:00,35.2,33.1,29.83,SE,144,0.0,13.0,92,0.00,,-RA,0.01,VWS V14.01,2013-02-10 16:13:00,
2013-02-10 10:15:00,35.2,33.4,29.83,SE,140,9.0,11.0,93,0.00,,,0.01,VWS V14.01,2013-02-10 16:15:00,
2013-02-10 10:18:00,35.2,33.4,29.83,SE,130,5.0,10.0,93,0.00,,-RA,0.01,VWS V14.01,2013-02-10 16:18:00,
2013-02-10 10:20:00,35.2,33.4,29.83,SE,138,5.0,10.0,93,0.00,,,0.01,VWS V14.01,2013-02-10 16:20:00,
2013-02-10 10:24:00,35.2,33.4,29.83,ESE,119,13.0,13.0,93,0.00,,-RA,0.01,VWS V14.01,2013-02-10 16:24:00,
2013-02-10 10:25:00,35.2,33.4,29.83,ESE,108,7.0,13.0,93,0.00,,,0.01,VWS V14.01,2013-02-10 16:25:00,
2013-02-10 10:29:00,35.2,33.4,29.83,SSE,153,6.0,14.0,93,0.00,,-RA,0.01,VWS V14.01,2013-02-10 16:29:00,
2013-02-10 10:30:00,35.2,33.4,29.83,SE,144,6.0,14.0,93,0.00,,,0.01,VWS V14.01,2013-02-10 16:30:00,
2013-02-10 10:34:00,35.2,33.4,29.82,ESE,121,9.0,14.0,93,0.00,,,0.01,VWS V14.01,2013-02-10 16:34:00,
2013-02-10 10:35:00,35.2,33.4,29.82,SE,124,4.0,14.0,93,0.00,,,0.01,VWS V14.01,2013-02-10 16:35:00,
2013-02-10 10:39:00,35.2,33.4,29.82,SE,129,8.0,13.0,93,0.00,,,0.01,VWS V14.01,2013-02-10 16:39:00,
2013-02-10 10:40:00,35.2,33.4,29.82,SE,134,5.0,13.0,93,0.00,,,0.01,VWS V14.01,2013-02-10 16:40:00,
2013-02-10 10:44:00,35.2,33.4,29.81,SE,142,2.0,13.0,93,0.00,,,0.01,VWS V14.01,2013-02-10 16:44:00,
2013-02-10 10:45:00,35.2,33.4,29.81,SE,128,6.0,13.0,93,0.00,,,0.01,VWS V14.01,2013-02-10 16:45:00,
2013-02-10 10:49:00,35.2,33.4,29.81,SE,125,1.0,12.0,93,0.00,,,0.01,VWS V14.01,2013-02-10 16:49:00,
2013-02-10 10:50:00,35.2,33.4,29.81,SE,132,6.0,12.0,93,0.00,,,0.01,VWS V14.01,2013-02-10 16:50:00,
2013-02-10 10:54:00,35.2,33.4,29.80,ESE,121,10.0,13.0,93,0.00,,,0.01,VWS V14.01,2013-02-10 16:54:00,
2013-02-10 10:55:00,35.2,33.4,29.80,SE,133,7.0,13.0,93,0.00,,,0.01,VWS V14.01,2013-02-10 16:55:00,
2013-02-10 10:59:00,35.2,33.4,29.80,SSE,148,10.0,11.0,93,0.00,,,0.01,VWS V14.01,2013-02-10 16:59:00,
2013-02-10 11:00:00,35.1,33.3,29.80,ESE,107,4.0,11.0,93,0.00,,,0.01,VWS V14.01,2013-02-10 17:00:00,
2013-02-10 11:04:00,35.2,33.7,29.79,SE,133,5.0,11.0,94,0.01,,-RA,0.02,VWS V14.01,2013-02-10 17:04:00,
2013-02-10 11:05:00,35.2,33.7,29.79,SE,133,5.0,11.0,94,0.01,,,0.02,VWS V14.01,2013-02-10 17:05:00,
2013-02-10 11:09:00,35.2,33.7,29.79,ESE,117,2.0,11.0,94,0.01,,-RA,0.02,VWS V14.01,2013-02-10 17:09:00,
2013-02-10 11:10:00,35.2,33.7,29.79,ESE,117,2.0,11.0,94,0.01,,,0.02,VWS V14.01,2013-02-10 17:10:00,
2013-02-10 11:14:00,35.3,33.8,29.78,ESE,115,0.0,12.0,94,0.01,,-RA,0.02,VWS V14.01,2013-02-10 17:14:00,
2013-02-10 11:15:00,35.3,33.8,29.78,ESE,115,0.0,12.0,94,0.01,,,0.02,VWS V14.01,2013-02-10 17:15:00,
2013-02-10 11:19:00,35.3,33.8,29.77,SSE,148,4.0,10.0,94,0.02,,-RA,0.03,VWS V14.01,2013-02-10 17:19:00,
2013-02-10 11:20:00,35.3,33.8,29.77,SSE,148,4.0,10.0,94,0.02,,,0.03,VWS V14.01,2013-02-10 17:20:00,
2013-02-10 11:24:00,35.3,33.8,29.77,ESE,119,9.0,13.0,94,0.03,,-RA,0.04,VWS V14.01,2013-02-10 17:24:00,
2013-02-10 11:25:00,35.3,33.8,29.77,ESE,119,9.0,13.0,94,0.03,,,0.04,VWS V14.01,2013-02-10 17:25:00,
2013-02-10 11:29:00,35.3,33.8,29.76,SE,144,10.0,13.0,94,0.03,,-RA,0.04,VWS V14.01,2013-02-10 17:29:00,
2013-02-10 11:30:00,35.3,33.8,29.76,SE,144,10.0,13.0,94,0.03,,,0.04,VWS V14.01,2013-02-10 17:30:00,
2013-02-10 11:34:00,35.4,34.1,29.76,SE,144,11.0,15.0,95,0.04,,RA,0.05,VWS V14.01,2013-02-10 17:34:00,
2013-02-10 11:35:00,35.4,34.1,29.76,SE,144,11.0,15.0,95,0.04,,,0.05,VWS V14.01,2013-02-10 17:35:00,
2013-02-10 11:39:00,35.4,34.1,29.76,SSE,165,5.0,16.0,95,0.05,,RA,0.06,VWS V14.01,2013-02-10 17:39:00,
2013-02-10 11:40:00,35.4,34.1,29.76,SSE,165,5.0,16.0,95,0.05,,,0.06,VWS V14.01,2013-02-10 17:40:00,
2013-02-10 11:45:00,35.3,33.8,29.75,SE,127,11.0,15.0,94,0.06,,RA,0.07,VWS V14.01,2013-02-10 17:45:00,
2013-02-10 11:50:00,35.3,34.0,29.74,SE,143,9.0,14.0,95,0.07,,RA,0.08,VWS V14.01,2013-02-10 17:50:00,
2013-02-10 11:55:00,35.2,33.9,29.73,ESE,115,10.0,14.0,95,0.08,,RA,0.09,VWS V14.01,2013-02-10 17:55:00,
2013-02-10 12:00:00,35.2,33.9,29.73,SE,140,7.0,14.0,95,0.09,,RA,0.10,VWS V14.01,2013-02-10 18:00:00,
2013-02-10 12:05:00,35.2,33.9,29.72,SE,135,8.0,13.0,95,0.10,,-RA,0.12,VWS V14.01,2013-02-10 18:05:00,
2013-02-10 12:10:00,35.2,33.9,29.71,SE,129,7.0,15.0,95,0.11,,-RA,0.13,VWS V14.01,2013-02-10 18:10:00,
2013-02-10 12:15:00,35.5,34.5,29.64,SSE,164,5.0,18.0,96,0.18,,FEW070,0.30,VWS V14.01,2013-02-10 18:15:00,
2013-02-10 12:16:00,35.1,33.8,29.70,SE,138,6.0,14.0,95,0.12,,-RA,0.14,VWS V14.01,2013-02-10 18:16:00,
2013-02-10 12:20:00,35.6,34.6,29.64,SSE,165,4.0,14.0,96,0.17,,FEW070,0.31,VWS V14.01,2013-02-10 18:20:00,
2013-02-10 12:21:00,35.1,33.8,29.69,SE,125,10.0,13.0,95,0.12,,-RA,0.15,VWS V14.01,2013-02-10 18:21:00,
2013-02-10 12:25:00,35.6,34.6,29.64,SE,145,9.0,14.0,96,0.17,,FEW070,0.32,VWS V14.01,2013-02-10 18:25:00,
2013-02-10 12:26:00,35.1,33.8,29.69,East,101,14.0,14.0,95,0.13,,-RA,0.17,VWS V14.01,2013-02-10 18:26:00,
2013-02-10 12:30:00,35.1,33.8,29.68,SE,128,11.0,15.0,95,0.14,,,0.18,VWS V14.01,2013-02-10 18:30:00,
2013-02-10 12:31:00,35.2,34.2,29.68,SE,138,8.0,15.0,96,0.14,,-RA,0.18,VWS V14.01,2013-02-10 18:31:00,
2013-02-10 12:35:00,35.1,34.1,29.68,SSE,161,9.0,15.0,96,0.15,,,0.19,VWS V14.01,2013-02-10 18:35:00,
2013-02-10 12:36:00,35.1,34.1,29.68,SE,136,5.0,13.0,96,0.15,,-RA,0.20,VWS V14.01,2013-02-10 18:36:00,
2013-02-10 12:40:00,35.1,34.1,29.67,SE,137,10.0,13.0,96,0.15,,,0.20,VWS V14.01,2013-02-10 18:40:00,
2013-02-10 12:41:00,35.2,34.2,29.67,SE,127,10.0,17.0,96,0.15,,-RA,0.21,VWS V14.01,2013-02-10 18:41:00,
2013-02-10 12:45:00,35.2,34.2,29.66,ESE,108,13.0,17.0,96,0.16,,,0.22,VWS V14.01,2013-02-10 18:45:00,
2013-02-10 12:46:00,35.2,34.2,29.66,SE,140,10.0,16.0,96,0.16,,-RA,0.23,VWS V14.01,2013-02-10 18:46:00,
2013-02-10 12:50:00,35.1,34.1,29.66,SE,128,8.0,15.0,96,0.17,,,0.24,VWS V14.01,2013-02-10 18:50:00,
2013-02-10 12:51:00,35.2,34.2,29.66,SE,144,10.0,17.0,96,0.17,,-RA,0.25,VWS V14.01,2013-02-10 18:51:00,
2013-02-10 12:55:00,35.2,34.2,29.66,SE,132,16.0,17.0,96,0.18,,,0.26,VWS V14.01,2013-02-10 18:55:00,
2013-02-10 12:56:00,35.3,34.3,29.65,SSE,161,4.0,16.0,96,0.17,,-RA,0.26,VWS V14.01,2013-02-10 18:56:00,
2013-02-10 13:00:00,35.3,34.3,29.65,ESE,117,14.0,17.0,96,0.19,,,0.28,VWS V14.01,2013-02-10 19:00:00,
2013-02-10 13:01:00,35.3,34.3,29.65,SE,136,8.0,18.0,96,0.18,,RA,0.28,VWS V14.01,2013-02-10 19:01:00,
2013-02-10 13:05:00,35.4,34.4,29.65,ENE,78,9.0,21.0,96,0.19,,,0.29,VWS V14.01,2013-02-10 19:05:00,
2013-02-10 13:06:00,35.5,34.5,29.64,SE,132,10.0,21.0,96,0.18,,RA,0.29,VWS V14.01,2013-02-10 19:06:00,
2013-02-10 13:10:00,35.5,34.5,29.64,SE,134,14.0,16.0,96,0.19,,,0.30,VWS V14.01,2013-02-10 19:10:00,
2013-02-10 13:11:00,35.5,34.5,29.64,ESE,118,11.0,17.0,96,0.18,,RA,0.30,VWS V14.01,2013-02-10 19:11:00,
2013-02-10 13:15:00,35.5,34.5,29.64,SSE,164,5.0,18.0,96,0.18,,,0.30,VWS V14.01,2013-02-10 19:15:00,
2013-02-10 13:17:00,35.6,34.6,29.64,South,175,5.0,21.0,96,0.17,,RA,0.31,VWS V14.01,2013-02-10 19:17:00,
2013-02-10 13:20:00,35.6,34.6,29.64,SSE,165,4.0,14.0,96,0.17,,,0.31,VWS V14.01,2013-02-10 19:20:00,
2013-02-10 13:22:00,35.6,34.6,29.64,East,90,13.0,14.0,96,0.16,,RA,0.31,VWS V14.01,2013-02-10 19:22:00,
2013-02-10 13:25:00,35.6,34.6,29.64,SE,145,9.0,14.0,96,0.17,,,0.32,VWS V14.01,2013-02-10 19:25:00,
2013-02-10 13:27:00,35.6,34.6,29.63,SE,131,4.0,15.0,96,0.16,,RA,0.32,VWS V14.01,2013-02-10 19:27:00,
2013-02-10 13:30:00,35.6,34.6,29.63,SSE,158,6.0,15.0,96,0.16,,,0.32,VWS V14.01,2013-02-10 19:30:00,
2013-02-10 13:32:00,35.7,34.7,29.63,South,169,0.0,14.0,96,0.15,,-RA,0.33,VWS V14.01,2013-02-10 19:32:00,
2013-02-10 13:35:00,35.7,34.7,29.62,SSE,161,4.0,14.0,96,0.15,,,0.33,VWS V14.01,2013-02-10 19:35:00,
2013-02-10 13:37:00,35.8,34.8,29.62,ESE,121,7.0,13.0,96,0.15,,-RA,0.34,VWS V14.01,2013-02-10 19:37:00,
2013-02-10 13:40:00,35.8,34.8,29.62,SE,142,7.0,13.0,96,0.15,,,0.34,VWS V14.01,2013-02-10 19:40:00,
2013-02-10 13:42:00,35.7,34.7,29.61,SE,138,5.0,17.0,96,0.14,,-RA,0.34,VWS V14.01,2013-02-10 19:42:00,
2013-02-10 13:45:00,35.8,34.8,29.60,SSE,152,11.0,17.0,96,0.14,,,0.34,VWS V14.01,2013-02-10 19:45:00,
2013-02-10 13:47:00,35.8,34.8,29.60,ESE,104,9.0,16.0,96,0.12,,-RA,0.34,VWS V14.01,2013-02-10 19:47:00,
2013-02-10 13:50:00,35.9,34.9,29.60,SE,143,7.0,15.0,96,0.12,,,0.34,VWS V14.01,2013-02-10 19:50:00,
2013-02-10 13:52:00,35.9,34.9,29.59,SE,143,12.0,15.0,96,0.11,,-RA,0.35,VWS V14.01,2013-02-10 19:52:00,
2013-02-10 13:55:00,35.9,34.9,29.59,SE,142,16.0,16.0,96,0.11,,,0.35,VWS V14.01,2013-02-10 19:55:00,
2013-02-10 13:57:00,36.0,35.2,29.59,SE,136,7.0,16.0,97,0.10,,-RA,0.36,VWS V14.01,2013-02-10 19:57:00,
2013-02-10 14:00:00,36.1,35.3,29.59,SE,143,10.0,16.0,97,0.10,,,0.36,VWS V14.01,2013-02-10 20:00:00,
2013-02-10 14:02:00,36.2,35.4,29.58,SE,128,15.0,17.0,97,0.08,,-RA,0.36,VWS V14.01,2013-02-10 20:02:00,
2013-02-10 14:05:00,36.2,35.2,29.58,North,360,3.0,17.0,96,0.09,,,0.37,VWS V14.01,2013-02-10 20:05:00,
2013-02-10 14:08:00,36.3,35.3,29.58,SSE,153,6.0,17.0,96,0.08,,-RA,0.37,VWS V14.01,2013-02-10 20:08:00,
2013-02-10 14:10:00,36.3,35.3,29.58,SSE,157,4.0,16.0,96,0.09,,,0.38,VWS V14.01,2013-02-10 20:10:00,
2013-02-10 14:13:00,36.3,35.3,29.57,SSE,152,5.0,17.0,96,0.09,,-RA,0.39,VWS V14.01,2013-02-10 20:13:00,
2013-02-10 14:15:00,36.3,35.3,29.57,SSW,202,4.0,17.0,96,0.09,,,0.39,VWS V14.01,2013-02-10 20:15:00,
2013-02-10 14:18:00,36.2,35.2,29.57,SSE,164,4.0,12.0,96,0.10,,-RA,0.40,VWS V14.01,2013-02-10 20:18:00,
2013-02-10 14:20:00,36.2,35.2,29.57,SE,138,7.0,12.0,96,0.10,,,0.40,VWS V14.01,2013-02-10 20:20:00,
2013-02-10 14:23:00,36.2,35.2,29.56,SE,130,11.0,15.0,96,0.09,,-RA,0.40,VWS V14.01,2013-02-10 20:23:00,
2013-02-10 14:25:00,36.2,35.2,29.56,SE,142,8.0,15.0,96,0.09,,,0.40,VWS V14.01,2013-02-10 20:25:00,
2013-02-10 14:28:00,36.3,35.3,29.56,SE,130,14.0,16.0,96,0.08,,-RA,0.40,VWS V14.01,2013-02-10 20:28:00,
2013-02-10 14:30:00,36.4,35.6,29.56,SE,145,4.0,16.0,97,0.08,,,0.40,VWS V14.01,2013-02-10 20:30:00,
2013-02-10 14:33:00,36.5,35.7,29.55,South,171,7.0,17.0,97,0.09,,-RA,0.41,VWS V14.01,2013-02-10 20:33:00,
2013-02-10 14:35:00,36.5,35.7,29.55,SSE,155,8.0,14.0,97,0.09,,,0.41,VWS V14.01,2013-02-10 20:35:00,
2013-02-10 14:38:00,36.4,35.4,29.55,SE,133,8.0,17.0,96,0.08,,-RA,0.41,VWS V14.01,2013-02-10 20:38:00,
2013-02-10 14:40:00,36.4,35.4,29.54,South,181,22.0,22.0,96,0.08,,,0.41,VWS V14.01,2013-02-10 20:40:00,
2013-02-10 14:43:00,36.6,35.8,29.53,South,173,8.0,22.0,97,0.07,,-RA,0.41,VWS V14.01,2013-02-10 20:43:00,
2013-02-10 14:45:00,36.6,35.8,29.53,SSE,164,7.0,17.0,97,0.07,,,0.41,VWS V14.01,2013-02-10 20:45:00,
2013-02-10 14:48:00,36.6,35.8,29.53,SE,124,1.0,19.0,97,0.08,,-RA,0.42,VWS V14.01,2013-02-10 20:48:00,
2013-02-10 14:50:00,36.6,35.8,29.53,ESE,119,5.0,19.0,97,0.08,,,0.42,VWS V14.01,2013-02-10 20:50:00,
2013-02-10 14:53:00,36.7,35.9,29.53,SSE,155,6.0,20.0,97,0.09,,-RA,0.43,VWS V14.01,2013-02-10 20:53:00,
2013-02-10 14:55:00,36.7,35.9,29.53,South,175,8.0,20.0,97,0.09,,,0.43,VWS V14.01,2013-02-10 20:55:00,
2013-02-10 14:58:00,36.8,36.0,29.52,South,169,12.0,15.0,97,0.08,,-RA,0.43,VWS V14.01,2013-02-10 20:58:00,
2013-02-10 15:00:00,36.9,36.1,29.53,SE,136,8.0,15.0,97,0.09,,,0.44,VWS V14.01,2013-02-10 21:00:00,
2013-02-10 15:03:00,36.9,36.1,29.52,SSE,165,5.0,14.0,97,0.08,,-RA,0.44,VWS V14.01,2013-02-10 21:03:00,
2013-02-10 15:05:00,36.8,36.0,29.52,SSE,159,6.0,12.0,97,0.08,,,0.44,VWS V14.01,2013-02-10 21:05:00,
2013-02-10 15:09:00,36.9,36.1,29.52,SSE,162,4.0,16.0,97,0.08,,-RA,0.45,VWS V14.01,2013-02-10 21:09:00,
2013-02-10 15:10:00,36.9,36.1,29.52,SSE,151,9.0,16.0,97,0.08,,,0.45,VWS V14.01,2013-02-10 21:10:00,
2013-02-10 15:14:00,36.8,36.0,29.51,SSE,153,9.0,15.0,97,0.07,,-RA,0.45,VWS V14.01,2013-02-10 21:14:00,
2013-02-10 15:15:00,36.8,36.0,29.51,SSE,148,2.0,15.0,97,0.07,,,0.45,VWS V14.01,2013-02-10 21:15:00,
2013-02-10 15:19:00,36.8,36.0,29.51,SSE,153,9.0,15.0,97,0.07,,-RA,0.46,VWS V14.01,2013-02-10 21:19:00,
2013-02-10 15:20:00,36.8,36.0,29.51,SSE,153,8.0,15.0,97,0.07,,,0.46,VWS V14.01,2013-02-10 21:20:00,
2013-02-10 15:24:00,36.8,36.0,29.51,SSE,157,11.0,15.0,97,0.07,,-RA,0.47,VWS V14.01,2013-02-10 21:24:00,
2013-02-10 15:25:00,36.8,36.0,29.51,SE,146,7.0,16.0,97,0.07,,,0.47,VWS V14.01,2013-02-10 21:25:00,
2013-02-10 15:29:00,36.9,36.1,29.51,South,170,10.0,15.0,97,0.08,,-RA,0.48,VWS V14.01,2013-02-10 21:29:00,
2013-02-10 15:30:00,36.9,36.1,29.51,SE,136,8.0,15.0,97,0.08,,,0.48,VWS V14.01,2013-02-10 21:30:00,
2013-02-10 15:34:00,37.0,36.2,29.51,SE,140,5.0,15.0,97,0.08,,-RA,0.48,VWS V14.01,2013-02-10 21:34:00,
2013-02-10 15:35:00,37.0,36.2,29.51,SE,138,3.0,15.0,97,0.08,,,0.48,VWS V14.01,2013-02-10 21:35:00,
2013-02-10 15:39:00,37.3,36.5,29.51,South,180,9.0,19.0,97,0.08,,-RA,0.49,VWS V14.01,2013-02-10 21:39:00,
2013-02-10 15:40:00,37.3,36.5,29.51,SE,130,13.0,19.0,97,0.08,,,0.49,VWS V14.01,2013-02-10 21:40:00,
2013-02-10 15:44:00,37.3,36.5,29.51,SE,133,7.0,13.0,97,0.08,,-RA,0.49,VWS V14.01,2013-02-10 21:44:00,
2013-02-10 15:45:00,38.6,37.8,29.49,South,188,14.0,22.0,97,0.05,,FEW070,0.54,VWS V14.01,2013-02-10 21:45:00,
2013-02-10 15:49:00,37.4,36.6,29.50,SSE,157,13.0,17.0,97,0.09,,-RA,0.50,VWS V14.01,2013-02-10 21:49:00,
2013-02-10 15:50:00,37.4,36.6,29.50,SSE,157,13.0,17.0,97,0.09,,,0.50,VWS V14.01,2013-02-10 21:50:00,
2013-02-10 15:54:00,37.4,36.6,29.49,SE,143,10.0,15.0,97,0.07,,-RA,0.50,VWS V14.01,2013-02-10 21:54:00,
2013-02-10 15:55:00,37.4,36.6,29.50,SSE,157,6.0,15.0,97,0.08,,,0.50,VWS V14.01,2013-02-10 21:55:00,
2013-02-10 16:00:00,37.4,36.6,29.49,SSE,161,10.0,16.0,97,0.08,,-RA,0.51,VWS V14.01,2013-02-10 22:00:00,
2013-02-10 16:05:00,37.8,37.0,29.50,SSE,155,10.0,17.0,97,0.08,,-RA,0.52,VWS V14.01,2013-02-10 22:05:00,
2013-02-10 16:10:00,38.4,37.6,29.51,SE,144,5.0,19.0,97,0.07,,-RA,0.52,VWS V14.01,2013-02-10 22:10:00,
2013-02-10 16:15:00,38.6,37.8,29.50,South,186,8.0,27.0,97,0.07,,-RA,0.52,VWS V14.01,2013-02-10 22:15:00,
2013-02-10 16:20:00,38.4,37.6,29.50,SSE,161,6.0,25.0,97,0.06,,-RA,0.52,VWS V14.01,2013-02-10 22:20:00,
2013-02-10 16:25:00,38.4,37.6,29.50,South,178,13.0,19.0,97,0.05,,-RA,0.52,VWS V14.01,2013-02-10 22:25:00,
2013-02-10 16:30:00,38.3,37.5,29.50,SSE,154,11.0,25.0,97,0.04,,-RA,0.52,VWS V14.01,2013-02-10 22:30:00,
2013-02-10 16:35:00,38.4,37.6,29.50,SSE,164,11.0,20.0,97,0.04,,,0.52,VWS V14.01,2013-02-10 22:35:00,
2013-02-10 16:40:00,38.5,37.7,29.49,SSE,157,7.0,24.0,97,0.04,,,0.53,VWS V14.01,2013-02-10 22:40:00,
2013-02-10 16:45:00,38.6,37.8,29.49,SSE,159,10.0,20.0,97,0.04,,,0.54,VWS V14.01,2013-02-10 22:45:00,
2013-02-10 16:50:00,38.6,37.8,29.49,SSE,165,10.0,17.0,97,0.06,,,0.56,VWS V14.01,2013-02-10 22:50:00,
2013-02-10 16:55:00,38.6,37.8,29.48,SSE,157,11.0,20.0,97,0.06,,,0.56,VWS V14.01,2013-02-10 22:55:00,
2013-02-10 17:00:00,38.5,37.7,29.48,South,182,6.0,17.0,97,0.06,,,0.57,VWS V14.01,2013-02-10 23:00:00,
2013-02-10 17:05:00,38.5,37.7,29.48,SE,136,10.0,15.0,97,0.07,,,0.58,VWS V14.01,2013-02-10 23:05:00,
2013-02-10 17:06:00,38.5,37.7,29.48,SSE,151,9.0,15.0,97,0.06,,-RA,0.58,VWS V14.01,2013-02-10 23:06:00,
2013-02-10 17:10:00,38.6,37.8,29.47,SE,137,9.0,16.0,97,0.06,,,0.58,VWS V14.01,2013-02-10 23:10:00,
2013-02-10 17:11:00,38.5,37.7,29.47,SSE,154,7.0,16.0,97,0.06,,-RA,0.58,VWS V14.01,2013-02-10 23:11:00,
2013-02-10 17:15:00,38.4,37.6,29.47,SSE,167,7.0,13.0,97,0.06,,,0.58,VWS V14.01,2013-02-10 23:15:00,
2013-02-10 17:16:00,38.3,37.5,29.47,SSE,148,5.0,16.0,97,0.07,,-RA,0.59,VWS V14.01,2013-02-10 23:16:00,
2013-02-10 17:20:00,38.0,37.2,29.47,SE,138,11.0,14.0,97,0.08,,,0.60,VWS V14.01,2013-02-10 23:20:00,
2013-02-10 17:21:00,37.9,37.1,29.47,SE,132,8.0,13.0,97,0.08,,-RA,0.60,VWS V14.01,2013-02-10 23:21:00,
2013-02-10 17:25:00,37.7,36.9,29.47,SE,135,6.0,11.0,97,0.08,,,0.60,VWS V14.01,2013-02-10 23:25:00,
2013-02-10 17:26:00,37.9,37.1,29.48,SE,144,5.0,11.0,97,0.08,,-RA,0.60,VWS V14.01,2013-02-10 23:26:00,
2013-02-10 17:30:00,38.2,37.4,29.47,SSE,161,6.0,11.0,97,0.08,,,0.60,VWS V14.01,2013-02-10 23:30:00,
2013-02-10 17:31:00,38.2,37.4,29.47,South,174,7.0,15.0,97,0.08,,-RA,0.60,VWS V14.01,2013-02-10 23:31:00,
2013-02-10 17:35:00,38.5,37.7,29.45,SE,138,0.0,10.0,97,0.02,,FEW070,0.62,VWS V14.01,2013-02-10 23:35:00,
2013-02-10 17:36:00,38.3,37.5,29.47,South,171,5.0,14.0,97,0.08,,-RA,0.60,VWS V14.01,2013-02-10 23:36:00,
2013-02-10 17:40:00,38.2,37.4,29.45,SE,139,7.0,10.0,97,0.02,,FEW070,0.62,VWS V14.01,2013-02-10 23:40:00,
2013-02-10 17:41:00,38.5,37.7,29.47,South,177,8.0,17.0,97,0.08,,-RA,0.61,VWS V14.01,2013-02-10 23:41:00,
2013-02-10 17:45:00,38.6,37.8,29.47,SE,133,5.0,16.0,97,0.08,,,0.61,VWS V14.01,2013-02-10 23:45:00,
2013-02-10 17:46:00,38.6,37.8,29.47,South,171,7.0,13.0,97,0.07,,-RA,0.61,VWS V14.01,2013-02-10 23:46:00,
2013-02-10 17:50:00,38.6,37.8,29.47,SSE,162,5.0,12.0,97,0.07,,,0.61,VWS V14.01,2013-02-10 23:50:00,
2013-02-10 17:51:00,38.6,37.8,29.47,ESE,119,0.0,10.0,97,0.05,,-RA,0.61,VWS V14.01,2013-02-10 23:51:00,
2013-02-10 17:55:00,38.7,37.9,29.47,SSE,159,8.0,12.0,97,0.05,,,0.61,VWS V14.01,2013-02-10 23:55:00,
2013-02-10 17:56:00,38.6,37.8,29.46,SE,145,11.0,12.0,97,0.05,,-RA,0.61,VWS V14.01,2013-02-10 23:56:00,
2013-02-10 18:00:00,38.6,37.8,29.46,SSE,151,6.0,11.0,97,0.05,,,0.61,VWS V14.01,2013-02-11 00:00:00,
2013-02-10 18:02:00,38.6,37.8,29.47,SE,138,6.0,12.0,97,0.04,,-RA,0.61,VWS V14.01,2013-02-11 00:02:00,
2013-02-10 18:05:00,38.5,37.7,29.46,SSE,147,7.0,12.0,97,0.05,,,0.62,VWS V14.01,2013-02-11 00:05:00,
2013-02-10 18:07:00,38.4,37.6,29.46,South,183,7.0,12.0,97,0.04,,-RA,0.62,VWS V14.01,2013-02-11 00:07:00,
2013-02-10 18:10:00,38.4,37.6,29.46,South,175,5.0,11.0,97,0.04,,,0.62,VWS V14.01,2013-02-11 00:10:00,
2013-02-10 18:12:00,38.4,37.6,29.46,South,174,6.0,13.0,97,0.04,,-RA,0.62,VWS V14.01,2013-02-11 00:12:00,
2013-02-10 18:15:00,38.3,37.5,29.46,SSE,154,8.0,13.0,97,0.04,,,0.62,VWS V14.01,2013-02-11 00:15:00,
2013-02-10 18:17:00,38.4,37.6,29.46,SSE,160,6.0,13.0,97,0.04,,-RA,0.62,VWS V14.01,2013-02-11 00:17:00,
2013-02-10 18:20:00,38.5,37.7,29.46,SE,130,5.0,13.0,97,0.04,,,0.62,VWS V14.01,2013-02-11 00:20:00,
2013-02-10 18:22:00,38.6,37.8,29.46,South,169,5.0,10.0,97,0.02,,-RA,0.62,VWS V14.01,2013-02-11 00:22:00,
2013-02-10 18:25:00,38.5,37.7,29.46,South,181,5.0,10.0,97,0.02,,,0.62,VWS V14.01,2013-02-11 00:25:00,
2013-02-10 18:27:00,38.4,37.6,29.46,SSE,168,4.0,10.0,97,0.02,,-RA,0.62,VWS V14.01,2013-02-11 00:27:00,
2013-02-10 18:30:00,38.3,37.5,29.46,SE,137,7.0,13.0,97,0.02,,,0.62,VWS V14.01,2013-02-11 00:30:00,
2013-02-10 18:32:00,38.4,37.6,29.46,SE,144,4.0,13.0,97,0.02,,-RA,0.62,VWS V14.01,2013-02-11 00:32:00,
2013-02-10 18:35:00,38.5,37.7,29.45,SE,138,0.0,10.0,97,0.02,,,0.62,VWS V14.01,2013-02-11 00:35:00,
2013-02-10 18:37:00,38.3,37.5,29.45,SE,136,5.0,10.0,97,0.02,,-RA,0.62,VWS V14.01,2013-02-11 00:37:00,
2013-02-10 18:40:00,39.1,38.3,29.42,South,183,6.0,10.0,97,0.00,,FEW070,0.62,VWS V14.01,2013-02-11 00:40:00,
2013-02-10 18:42:00,38.1,37.3,29.45,SE,142,12.0,12.0,97,0.01,,-RA,0.62,VWS V14.01,2013-02-11 00:42:00,
2013-02-10 18:45:00,38.0,37.2,29.44,SE,142,9.0,13.0,97,0.01,,,0.62,VWS V14.01,2013-02-11 00:45:00,
2013-02-10 18:47:00,38.2,37.4,29.44,SSE,160,4.0,12.0,97,0.01,,-RA,0.62,VWS V14.01,2013-02-11 00:47:00,
2013-02-10 18:50:00,38.2,37.4,29.44,SSE,157,5.0,11.0,97,0.01,,,0.62,VWS V14.01,2013-02-11 00:50:00,
2013-02-10 18:52:00,38.2,37.4,29.44,SE,131,6.0,13.0,97,0.01,,-RA,0.62,VWS V14.01,2013-02-11 00:52:00,
2013-02-10 18:55:00,38.2,37.4,29.44,SSE,155,4.0,13.0,97,0.01,,,0.62,VWS V14.01,2013-02-11 00:55:00,
2013-02-10 18:57:00,38.2,37.4,29.44,SE,136,0.0,10.0,97,0.01,,-RA,0.62,VWS V14.01,2013-02-11 00:57:00,
2013-02-10 19:00:00,38.1,37.3,29.43,SSE,147,5.0,10.0,97,0.01,,,0.62,VWS V14.01,2013-02-11 01:00:00,
2013-02-10 19:02:00,37.9,37.1,29.43,SE,137,5.0,11.0,97,0.01,,,0.62,VWS V14.01,2013-02-11 01:02:00,
2013-02-10 19:05:00,37.9,37.1,29.43,SSE,153,8.0,11.0,97,0.01,,,0.62,VWS V14.01,2013-02-11 01:05:00,
2013-02-10 19:07:00,38.1,37.3,29.43,SE,138,6.0,11.0,97,0.00,,,0.62,VWS V14.01,2013-02-11 01:07:00,
2013-02-10 19:10:00,38.2,37.4,29.43,South,173,5.0,12.0,97,0.00,,,0.62,VWS V14.01,2013-02-11 01:10:00,
2013-02-10 19:13:00,38.3,37.5,29.43,SE,139,2.0,10.0,97,0.00,,,0.62,VWS V14.01,2013-02-11 01:13:00,
2013-02-10 19:15:00,38.3,37.5,29.43,SE,131,8.0,10.0,97,0.00,,,0.62,VWS V14.01,2013-02-11 01:15:00,
2013-02-10 19:18:00,38.4,37.6,29.43,SSE,150,0.0,10.0,97,0.00,,,0.62,VWS V14.01,2013-02-11 01:18:00,
2013-02-10 19:20:00,38.3,37.5,29.43,South,171,10.0,14.0,97,0.00,,,0.62,VWS V14.01,2013-02-11 01:20:00,
2013-02-10 19:23:00,38.6,37.8,29.43,ESE,108,8.0,14.0,97,0.00,,,0.62,VWS V14.01,2013-02-11 01:23:00,
2013-02-10 19:25:00,38.7,37.9,29.42,South,187,7.0,12.0,97,0.00,,,0.62,VWS V14.01,2013-02-11 01:25:00,
2013-02-10 19:28:00,38.8,38.0,29.42,South,171,1.0,11.0,97,0.00,,,0.62,VWS V14.01,2013-02-11 01:28:00,
2013-02-10 19:30:00,38.8,38.0,29.42,SSE,151,4.0,11.0,97,0.00,,,0.62,VWS V14.01,2013-02-11 01:30:00,
2013-02-10 19:33:00,38.9,38.1,29.42,SSE,162,8.0,13.0,97,0.00,,,0.62,VWS V14.01,2013-02-11 01:33:00,
2013-02-10 19:35:00,39.0,38.2,29.42,South,174,9.0,12.0,97,0.00,,,0.62,VWS V14.01,2013-02-11 01:35:00,
2013-02-10 19:38:00,39.1,38.3,29.42,South,175,0.0,10.0,97,0.00,,,0.62,VWS V14.01,2013-02-11 01:38:00,
2013-02-10 19:40:00,39.1,38.3,29.42,South,183,6.0,10.0,97,0.00,,,0.62,VWS V14.01,2013-02-11 01:40:00,
2013-02-10 19:43:00,39.0,38.2,29.42,South,173,0.0,7.0,97,0.00,,,0.62,VWS V14.01,2013-02-11 01:43:00,
2013-02-10 19:45:00,39.0,38.2,29.42,South,173,0.0,7.0,97,0.00,,,0.62,VWS V14.01,2013-02-11 01:45:00,
2013-02-10 19:48:00,38.9,38.1,29.42,SSE,152,0.0,4.0,97,0.00,,,0.62,VWS V14.01,2013-02-11 01:48:00,
2013-02-10 19:50:00,38.9,38.1,29.42,SSE,154,0.0,4.0,97,0.00,,,0.62,VWS V14.01,2013-02-11 01:50:00,
2013-02-10 19:53:00,38.6,37.8,29.42,SSE,154,0.0,4.0,97,0.00,,,0.62,VWS V14.01,2013-02-11 01:53:00,
2013-02-10 19:55:00,38.6,37.8,29.42,SSE,153,0.0,0.0,97,0.00,,,0.62,VWS V14.01,2013-02-11 01:55:00,
2013-02-10 19:58:00,38.5,37.7,29.42,SSE,153,0.0,0.0,97,0.00,,,0.62,VWS V14.01,2013-02-11 01:58:00,
2013-02-10 20:00:00,38.5,37.7,29.42,SSE,153,0.0,0.0,97,0.00,,,0.62,VWS V14.01,2013-02-11 02:00:00,
2013-02-10 20:03:00,38.6,37.8,29.41,SSE,152,0.0,1.0,97,0.00,,BKN075,0.62,VWS V14.01,2013-02-11 02:03:00,
2013-02-10 20:05:00,38.6,37.8,29.41,SSE,150,0.0,1.0,97,0.00,,,0.62,VWS V14.01,2013-02-11 02:05:00,
2013-02-10 20:08:00,38.8,38.0,29.41,South,187,4.0,7.0,97,0.00,,BKN075,0.62,VWS V14.01,2013-02-11 02:08:00,
2013-02-10 20:10:00,38.9,38.1,29.41,SSE,165,0.0,7.0,97,0.00,,,0.62,VWS V14.01,2013-02-11 02:10:00,
2013-02-10 20:13:00,38.9,38.1,29.41,SE,139,0.0,0.0,97,0.00,,BKN075,0.62,VWS V14.01,2013-02-11 02:13:00,
2013-02-10 20:15:00,38.8,38.0,29.41,SE,139,0.0,0.0,97,0.00,,,0.62,VWS V14.01,2013-02-11 02:15:00,
2013-02-10 20:18:00,38.9,38.1,29.40,SE,138,0.0,5.0,97,0.00,,BKN075,0.62,VWS V14.01,2013-02-11 02:18:00,
2013-02-10 20:20:00,38.9,38.1,29.40,SE,139,0.0,5.0,97,0.00,,,0.62,VWS V14.01,2013-02-11 02:20:00,
2013-02-10 20:23:00,38.4,37.6,29.40,SE,129,0.0,0.0,97,0.00,,BKN075,0.62,VWS V14.01,2013-02-11 02:23:00,
2013-02-10 20:25:00,38.4,37.6,29.40,SE,129,0.0,0.0,97,0.00,,,0.62,VWS V14.01,2013-02-11 02:25:00,
2013-02-10 20:29:00,38.3,37.5,29.40,SSE,148,0.0,0.0,97,0.00,,BKN075,0.62,VWS V14.01,2013-02-11 02:29:00,
2013-02-10 20:30:00,38.4,37.6,29.40,SSE,147,0.0,0.0,97,0.00,,,0.62,VWS V14.01,2013-02-11 02:30:00,
2013-02-10 20:34:00,38.8,38.3,29.40,SE,142,0.0,0.0,98,0.00,,BKN075,0.62,VWS V14.01,2013-02-11 02:34:00,
2013-02-10 20:35:00,42.6,42.1,29.38,North,360,9.0,17.0,98,0.00,,FEW070,0.62,VWS V14.01,2013-02-11 02:35:00,
2013-02-10 20:39:00,39.1,38.6,29.40,SE,133,0.0,6.0,98,0.00,,BKN075,0.62,VWS V14.01,2013-02-11 02:39:00,
2013-02-10 20:40:00,39.2,38.7,29.40,SE,146,0.0,6.0,98,0.00,,,0.62,VWS V14.01,2013-02-11 02:40:00,
2013-02-10 20:44:00,39.8,39.3,29.40,South,171,5.0,8.0,98,0.00,,BKN075,0.62,VWS V14.01,2013-02-11 02:44:00,
2013-02-10 20:45:00,39.8,39.3,29.40,South,171,2.0,8.0,98,0.00,,,0.62,VWS V14.01,2013-02-11 02:45:00,
2013-02-10 20:49:00,40.7,40.2,29.40,South,179,9.0,12.0,98,0.00,,BKN075,0.62,VWS V14.01,2013-02-11 02:49:00,
2013-02-10 20:50:00,40.7,40.2,29.40,South,170,5.0,12.0,98,0.00,,,0.62,VWS V14.01,2013-02-11 02:50:00,
2013-02-10 20:54:00,41.1,40.6,29.39,SSE,150,0.0,8.0,98,0.00,,BKN075,0.62,VWS V14.01,2013-02-11 02:54:00,
2013-02-10 20:55:00,41.1,40.6,29.39,SE,134,5.0,8.0,98,0.00,,,0.62,VWS V14.01,2013-02-11 02:55:00,
2013-02-10 20:59:00,40.2,39.7,29.39,SSE,158,1.0,7.0,98,0.00,,BKN075,0.62,VWS V14.01,2013-02-11 02:59:00,
2013-02-10 21:00:00,40.1,39.6,29.39,SE,128,7.0,7.0,98,0.00,,,0.62,VWS V14.01,2013-02-11 03:00:00,
2013-02-10 21:04:00,40.0,39.5,29.39,South,175,5.0,6.0,98,0.00,,OVC025,0.62,VWS V14.01,2013-02-11 03:04:00,
2013-02-10 21:05:00,40.1,39.6,29.39,South,174,8.0,8.0,98,0.00,,,0.62,VWS V14.01,2013-02-11 03:05:00,
2013-02-10 21:09:00,41.0,40.5,29.39,South,171,0.0,10.0,98,0.00,,OVC025,0.62,VWS V14.01,2013-02-11 03:09:00,
2013-02-10 21:10:00,41.0,40.5,29.39,South,171,0.0,10.0,98,0.00,,,0.62,VWS V14.01,2013-02-11 03:10:00,
2013-02-10 21:14:00,41.2,41.2,29.39,South,186,11.0,11.0,100,0.00,,OVC025,0.62,VWS V14.01,2013-02-11 03:14:00,
2013-02-10 21:15:00,44.1,43.0,29.37,SSW,193,10.0,19.0,96,0.00,,FEW070,0.62,VWS V14.01,2013-02-11 03:15:00,
2013-02-10 21:19:00,42.0,41.5,29.39,South,183,7.0,17.0,98,0.00,,OVC025,0.62,VWS V14.01,2013-02-11 03:19:00,
2013-02-10 21:20:00,42.0,41.5,29.39,South,183,7.0,17.0,98,0.00,,,0.62,VWS V14.01,2013-02-11 03:20:00,
2013-02-10 21:24:00,42.4,41.9,29.38,SSW,205,8.0,15.0,98,0.00,,OVC025,0.62,VWS V14.01,2013-02-11 03:24:00,
2013-02-10 21:25:00,44.1,42.8,29.37,SSE,165,16.0,16.0,95,0.00,,FEW070,0.62,VWS V14.01,2013-02-11 03:25:00,
2013-02-10 21:29:00,42.5,42.0,29.38,SSW,195,10.0,15.0,98,0.00,,OVC025,0.62,VWS V14.01,2013-02-11 03:29:00,
2013-02-10 21:30:00,44.1,42.8,29.37,SSW,203,8.0,17.0,95,0.00,,FEW250,0.62,VWS V14.01,2013-02-11 03:30:00,
2013-02-10 21:34:00,42.6,42.1,29.38,North,360,9.0,17.0,98,0.00,,OVC025,0.62,VWS V14.01,2013-02-11 03:34:00,
2013-02-10 21:35:00,44.4,42.8,29.37,SSW,204,8.0,26.0,94,0.00,,FEW070,0.62,VWS V14.01,2013-02-11 03:35:00,
2013-02-10 21:39:00,42.8,42.3,29.38,SE,143,15.0,15.0,98,0.00,,OVC025,0.62,VWS V14.01,2013-02-11 03:39:00,
2013-02-10 21:40:00,42.8,42.3,29.38,SE,143,15.0,15.0,98,0.00,,,0.62,VWS V14.01,2013-02-11 03:40:00,
2013-02-10 21:44:00,42.9,42.4,29.37,South,181,11.0,16.0,98,0.00,,OVC025,0.62,VWS V14.01,2013-02-11 03:44:00,
2013-02-10 21:45:00,42.9,42.4,29.37,South,181,11.0,16.0,98,0.00,,,0.62,VWS V14.01,2013-02-11 03:45:00,
2013-02-10 21:49:00,43.2,42.7,29.37,SSW,207,11.0,15.0,98,0.00,,OVC025,0.62,VWS V14.01,2013-02-11 03:49:00,
2013-02-10 21:50:00,43.2,42.7,29.37,SSW,207,11.0,15.0,98,0.00,,,0.62,VWS V14.01,2013-02-11 03:50:00,
2013-02-10 21:54:00,43.4,42.9,29.37,South,179,11.0,15.0,98,0.00,,OVC025,0.62,VWS V14.01,2013-02-11 03:54:00,
2013-02-10 21:55:00,43.4,42.9,29.37,South,179,11.0,15.0,98,0.00,,,0.62,VWS V14.01,2013-02-11 03:55:00,
2013-02-10 21:59:00,43.5,42.7,29.37,South,175,15.0,17.0,97,0.00,,OVC025,0.62,VWS V14.01,2013-02-11 03:59:00,
2013-02-10 22:00:00,43.5,42.7,29.37,South,175,15.0,17.0,97,0.00,,,0.62,VWS V14.01,2013-02-11 04:00:00,
2013-02-10 22:05:00,43.9,43.1,29.37,SSW,192,6.0,17.0,97,0.00,,BKN030,0.62,VWS V14.01,2013-02-11 04:05:00,
2013-02-10 22:10:00,44.0,42.9,29.37,SSW,196,8.0,18.0,96,0.00,,BKN030,0.62,VWS V14.01,2013-02-11 04:10:00,
2013-02-10 22:15:00,44.1,43.0,29.37,SW,215,9.0,19.0,96,0.00,,BKN030,0.62,VWS V14.01,2013-02-11 04:15:00,
2013-02-10 22:20:00,44.2,42.9,29.37,SSW,195,10.0,20.0,95,0.00,,BKN030,0.62,VWS V14.01,2013-02-11 04:20:00,
2013-02-10 22:25:00,44.1,42.8,29.37,SW,214,11.0,16.0,95,0.00,,BKN030,0.62,VWS V14.01,2013-02-11 04:25:00,
2013-02-10 22:30:00,44.1,42.8,29.37,SSW,200,10.0,17.0,95,0.00,,BKN030,0.62,VWS V14.01,2013-02-11 04:30:00,
2013-02-10 22:35:00,44.4,42.8,29.37,SSW,199,13.0,26.0,94,0.00,,SCT030,0.62,VWS V14.01,2013-02-11 04:35:00,
2013-02-10 22:40:00,44.3,42.4,29.37,SSW,192,10.0,17.0,93,0.00,,SCT030,0.62,VWS V14.01,2013-02-11 04:40:00,
2013-02-10 22:45:00,44.2,42.3,29.36,SSE,167,4.0,19.0,93,0.00,,SCT030,0.62,VWS V14.01,2013-02-11 04:45:00,
2013-02-10 22:50:00,44.1,41.9,29.36,SSW,205,8.0,15.0,92,0.00,,,0.62,VWS V14.01,2013-02-11 04:50:00,
2013-02-10 22:51:00,44.0,41.8,29.36,South,175,10.0,19.0,92,0.00,,SCT030,0.62,VWS V14.01,2013-02-11 04:51:00,
2013-02-10 22:55:00,44.2,42.0,29.36,SSW,202,9.0,19.0,92,0.00,,,0.62,VWS V14.01,2013-02-11 04:55:00,
2013-02-10 22:56:00,44.2,41.7,29.36,South,178,11.0,18.0,91,0.00,,SCT030,0.62,VWS V14.01,2013-02-11 04:56:00,
2013-02-10 23:00:00,44.1,41.7,29.36,South,181,12.0,21.0,91,0.00,,SCT030,0.62,VWS V14.01,2013-02-11 05:00:00,
2013-02-10 23:02:00,44.2,41.5,29.36,North,360,14.0,21.0,90,0.00,,FEW035,0.62,VWS V14.01,2013-02-11 05:02:00,
2013-02-10 23:04:00,44.1,41.4,29.36,SSW,196,17.0,23.0,90,0.00,,FEW035,0.62,VWS V14.01,2013-02-11 05:04:00,
2013-02-10 23:05:00,44.2,41.5,29.36,SW,216,13.0,23.0,90,0.00,,,0.62,VWS V14.01,2013-02-11 05:05:00,
2013-02-10 23:09:00,44.1,41.1,29.36,SSW,213,5.0,17.0,89,0.00,,FEW035,0.62,VWS V14.01,2013-02-11 05:09:00,
2013-02-10 23:10:00,44.0,41.0,29.36,SSW,195,15.0,17.0,89,0.00,,FEW035,0.62,VWS V14.01,2013-02-11 05:10:00,
2013-02-10 23:15:00,43.7,40.7,29.36,SSW,192,12.0,18.0,89,0.00,,FEW035,0.62,VWS V14.01,2013-02-11 05:15:00,
2013-02-10 23:20:00,44.0,40.4,29.36,SSW,193,13.0,30.0,87,0.00,,FEW035,0.62,VWS V14.01,2013-02-11 05:20:00,
2013-02-10 23:25:00,43.8,39.9,29.36,SSW,193,11.0,19.0,86,0.00,,FEW035,0.62,VWS V14.01,2013-02-11 05:25:00,
2013-02-10 23:30:00,43.5,39.6,29.36,South,169,6.0,15.0,86,0.00,,FEW035,0.62,VWS V14.01,2013-02-11 05:30:00,
2013-02-10 23:35:00,43.4,39.5,29.36,SW,231,11.0,17.0,86,0.00,,FEW035,0.62,VWS V14.01,2013-02-11 05:35:00,
2013-02-10 23:40:00,43.3,39.4,29.36,SW,221,11.0,23.0,86,0.00,,FEW035,0.62,VWS V14.01,2013-02-11 05:40:00,
2013-02-10 23:45:00,43.2,39.3,29.36,WSW,246,7.0,17.0,86,0.00,,FEW035,0.62,VWS V14.01,2013-02-11 05:45:00,
2013-02-10 23:50:00,43.1,38.9,29.36,SSW,194,13.0,18.0,85,0.00,,FEW035,0.62,VWS V14.01,2013-02-11 05:50:00,
2013-02-10 23:55:00,43.0,38.5,29.36,South,186,14.0,18.0,84,0.00,,,0.62,VWS V14.01,2013-02-11 05:55:00,
2013-02-10 23:56:00,42.9,38.4,29.36,SW,236,11.0,15.0,84,0.00,,FEW035,0.62,VWS V14.01,2013-02-11 05:56:00,